createdAt,value
2023-01-18T00:00:28.212Z,99.89
2023-01-18T00:05:30.451Z,98.94
2023-01-18T00:10:34.159Z,99.19
2023-01-18T00:15:37.669Z,99.56
2023-01-18T00:20:39.713Z,99.31
2023-01-18T00:25:43.127Z,99.53
2023-01-18T00:30:45.215Z,99.74
2023-01-18T00:35:55.298Z,99.91
2023-01-18T00:40:58.663Z,99.70
2023-01-18T00:46:00.380Z,100.00
2023-01-18T00:51:03.184Z,99.51
2023-01-18T00:56:08.249Z,99.80
2023-01-18T01:01:10.993Z,99.62
2023-01-18T01:06:14.908Z,99.99
2023-01-18T01:11:18.372Z,98.67
2023-01-18T01:16:21.409Z,99.33
2023-01-18T01:21:23.462Z,99.71
2023-01-18T01:26:27.094Z,99.78
2023-01-18T01:31:29.253Z,99.52
2023-01-18T01:36:31.353Z,99.44
2023-01-18T01:41:35.523Z,99.28
2023-01-18T01:46:43.604Z,98.84
2023-01-18T01:51:49.351Z,99.16
2023-01-18T01:56:57.102Z,99.21
2023-01-18T02:01:59.626Z,99.04
2023-01-18T02:07:01.703Z,99.01
2023-01-18T02:12:05.637Z,99.01
2023-01-18T02:17:19.656Z,99.06
2023-01-18T02:22:42.249Z,99.18
2023-01-18T02:27:51.603Z,99.37
2023-01-18T02:33:04.540Z,99.44
2023-01-18T02:38:10.566Z,99.34
2023-01-18T02:43:16.473Z,99.54
2023-01-18T02:48:22.042Z,99.36
2023-01-18T02:53:24.879Z,99.86
2023-01-18T02:58:31.757Z,99.48
2023-01-18T03:03:36.109Z,99.54
2023-01-18T03:08:43.188Z,99.41
2023-01-18T03:14:01.312Z,99.77
2023-01-18T03:19:11.415Z,99.49
2023-01-18T03:24:16.659Z,99.61
2023-01-18T03:29:21.196Z,99.71
2023-01-18T03:34:30.136Z,99.18
2023-01-18T03:39:37.871Z,99.44
2023-01-18T03:44:45.435Z,99.21
2023-01-18T03:49:49.311Z,98.95
2023-01-18T03:55:05.654Z,99.26
2023-01-18T04:00:09.868Z,99.62
2023-01-18T04:05:13.300Z,99.44
2023-01-18T04:10:15.310Z,99.63
2023-01-18T04:15:17.345Z,99.71
2023-01-18T04:20:20.840Z,99.78
2023-01-18T04:25:23.026Z,99.68
2023-01-18T04:30:25.085Z,99.41
2023-01-18T04:35:28.404Z,99.87
2023-01-18T04:40:30.463Z,99.94
2023-01-18T04:45:32.647Z,100.00
2023-01-18T04:50:44.883Z,99.78
2023-01-18T04:55:48.084Z,99.62
2023-01-18T05:00:49.894Z,99.65
2023-01-18T05:05:55.557Z,100.00
2023-01-18T05:11:04.442Z,100.00
2023-01-18T05:16:08.735Z,100.00
2023-01-18T05:21:13.632Z,99.77
2023-01-18T05:26:20.403Z,99.74
2023-01-18T05:31:26.053Z,99.67
2023-01-18T05:36:29.922Z,99.70
2023-01-18T05:41:31.668Z,99.46
2023-01-18T05:46:33.685Z,99.76
2023-01-18T05:51:37.558Z,99.66
2023-01-18T05:56:39.476Z,99.77
2023-01-18T06:01:41.795Z,99.62
2023-01-18T06:06:44.897Z,99.75
2023-01-18T06:11:47.012Z,99.79
2023-01-18T06:16:49.241Z,99.96
2023-01-18T06:21:52.811Z,99.85
2023-01-18T06:26:54.829Z,100.00
2023-01-18T06:31:56.574Z,99.65
2023-01-18T06:37:03.850Z,100.00
2023-01-18T06:42:06.554Z,99.85
2023-01-18T06:47:08.818Z,99.93
2023-01-18T06:52:12.272Z,99.84
2023-01-18T06:57:14.255Z,99.72
2023-01-18T07:02:16.031Z,99.68
2023-01-18T07:07:19.100Z,99.85
2023-01-18T07:12:21.690Z,99.47
2023-01-18T07:17:23.827Z,97.30
2023-01-18T07:22:27.555Z,94.64
2023-01-18T07:27:29.597Z,93.93
2023-01-18T07:32:31.697Z,93.87
2023-01-18T07:37:35.675Z,93.84
2023-01-18T07:42:38.197Z,92.48
2023-01-18T07:47:41.043Z,90.33
2023-01-18T07:52:44.769Z,89.42
2023-01-18T07:57:47.068Z,89.45
2023-01-18T08:02:50.753Z,90.41
2023-01-18T08:07:54.318Z,91.82
2023-01-18T08:12:56.727Z,92.27
2023-01-18T08:18:02.208Z,91.93
2023-01-18T08:23:05.760Z,91.47
2023-01-18T08:28:08.006Z,91.24
2023-01-18T08:33:10.568Z,89.36
2023-01-18T08:38:16.442Z,88.81
2023-01-18T08:43:18.590Z,88.07
2023-01-18T08:48:20.715Z,86.23
2023-01-18T08:53:24.099Z,84.62
2023-01-18T08:58:26.751Z,84.18
2023-01-18T09:03:28.903Z,85.28
2023-01-18T09:08:32.315Z,86.71
2023-01-18T09:13:34.669Z,86.95
2023-01-18T09:18:37.949Z,85.85
2023-01-18T09:23:41.112Z,86.38
2023-01-18T09:28:43.452Z,86.66
2023-01-18T09:33:52.741Z,86.40
2023-01-18T09:38:57.293Z,85.12
2023-01-18T09:44:02.871Z,83.53
2023-01-18T09:49:07.888Z,82.93
2023-01-18T09:54:23.951Z,81.88
2023-01-18T09:59:33.715Z,81.10
2023-01-18T10:04:42.850Z,80.90
2023-01-18T10:09:48.571Z,81.10
2023-01-18T10:14:57.777Z,79.95
2023-01-18T10:20:00.340Z,78.96
2023-01-18T10:25:14.350Z,78.92
2023-01-18T10:30:32.659Z,79.88
2023-01-18T10:35:39.366Z,81.02
2023-01-18T10:40:47.175Z,80.48
2023-01-18T10:45:48.923Z,80.34
2023-01-18T10:50:53.544Z,81.26
2023-01-18T10:56:01.693Z,80.97
2023-01-18T11:01:04.538Z,80.94
2023-01-18T11:06:08.122Z,80.42
2023-01-18T11:11:18.859Z,81.16
2023-01-18T11:16:22.562Z,80.81
2023-01-18T11:21:25.713Z,80.03
2023-01-18T11:26:28.870Z,79.12
2023-01-18T11:31:42.554Z,78.54
2023-01-18T11:36:45.379Z,79.02
2023-01-18T11:41:48.866Z,77.56
2023-01-18T11:46:55.069Z,77.93
2023-01-18T11:52:00.627Z,77.98
2023-01-18T11:57:04.557Z,77.61
2023-01-18T12:02:31.286Z,76.78
2023-01-18T12:07:45.854Z,76.87
2023-01-18T12:13:05.766Z,76.77
2023-01-18T12:18:25.084Z,77.18
2023-01-18T12:23:45.283Z,75.65
2023-01-18T12:29:04.687Z,75.07
2023-01-18T12:34:14.297Z,75.68
2023-01-18T12:39:28.867Z,75.86
2023-01-18T12:44:53.237Z,75.62
2023-01-18T12:49:58.725Z,76.24
2023-01-18T12:55:05.825Z,75.91
2023-01-18T13:00:16.558Z,76.24
2023-01-18T13:05:23.532Z,75.84
2023-01-18T13:10:28.523Z,75.24
2023-01-18T13:15:42.921Z,76.00
2023-01-18T13:20:57.426Z,76.37
2023-01-18T13:26:10.339Z,76.52
2023-01-18T13:31:14.243Z,75.62
2023-01-18T13:36:19.772Z,76.36
2023-01-18T13:41:24.970Z,76.96
2023-01-18T13:46:30.594Z,76.91
2023-01-18T13:51:56.698Z,77.29
2023-01-18T13:57:16.737Z,77.49
2023-01-18T14:02:26.797Z,78.00
2023-01-18T14:07:30.278Z,77.67
2023-01-18T14:12:49.660Z,77.92
2023-01-18T14:17:58.496Z,78.05
2023-01-18T14:23:13.247Z,78.42
2023-01-18T14:28:20.919Z,78.89
2023-01-18T14:33:30.400Z,78.95
2023-01-18T14:38:32.344Z,78.49
2023-01-18T14:43:37.405Z,78.40
2023-01-18T14:48:47.165Z,77.89
2023-01-18T14:53:52.773Z,77.93
2023-01-18T14:58:57.517Z,77.63
2023-01-18T15:04:02.510Z,77.49
2023-01-18T15:09:06.757Z,78.26
2023-01-18T15:14:13.039Z,79.30
2023-01-18T15:19:20.657Z,79.54
2023-01-18T15:24:24.027Z,79.79
2023-01-18T15:29:30.709Z,79.14
2023-01-18T15:34:36.755Z,79.73
2023-01-18T15:39:48.236Z,79.70
2023-01-18T15:44:53.856Z,79.91
2023-01-18T15:50:00.534Z,79.82
2023-01-18T15:55:07.051Z,80.51
2023-01-18T16:00:26.950Z,81.07
2023-01-18T16:05:30.743Z,81.41
2023-01-18T16:10:33.154Z,81.59
2023-01-18T16:15:35.321Z,82.09
2023-01-18T16:20:39.152Z,82.86
2023-01-18T16:25:41.269Z,82.89
2023-01-18T16:30:49.650Z,82.92
2023-01-18T16:35:53.106Z,82.12
2023-01-18T16:40:54.919Z,81.66
2023-01-18T16:45:57.664Z,82.08
2023-01-18T16:51:01.348Z,82.92
2023-01-18T16:56:03.886Z,82.97
2023-01-18T17:01:08.188Z,83.33
2023-01-18T17:06:16.525Z,84.77
2023-01-18T17:11:18.474Z,85.28
2023-01-18T17:16:20.828Z,85.19
2023-01-18T17:21:23.981Z,85.58
2023-01-18T17:26:25.902Z,86.62
2023-01-18T17:31:27.892Z,86.67
2023-01-18T17:36:31.363Z,86.88
2023-01-18T17:41:33.641Z,86.83
2023-01-18T17:46:36.504Z,87.21
2023-01-18T17:51:39.973Z,87.49
2023-01-18T17:56:41.870Z,88.02
2023-01-18T18:01:43.744Z,88.39
2023-01-18T18:06:54.137Z,89.59
2023-01-18T18:11:57.228Z,90.78
2023-01-18T18:16:58.942Z,91.67
2023-01-18T18:22:02.470Z,91.90
2023-01-18T18:27:04.469Z,92.76
2023-01-18T18:32:07.774Z,93.62
2023-01-18T18:37:10.958Z,93.58
2023-01-18T18:42:13.037Z,91.05
2023-01-18T18:47:14.871Z,88.65
2023-01-18T18:52:18.456Z,89.11
2023-01-18T18:57:20.565Z,87.39
2023-01-18T19:02:22.643Z,88.39
2023-01-18T19:07:26.296Z,87.13
2023-01-18T19:12:28.639Z,87.35
2023-01-18T19:17:32.844Z,86.96
2023-01-18T19:22:38.181Z,86.84
2023-01-18T19:27:40.704Z,88.04
2023-01-18T19:32:42.944Z,88.38
2023-01-18T19:37:47.920Z,88.84
2023-01-18T19:42:50.634Z,89.50
2023-01-18T19:47:53.675Z,88.83
2023-01-18T19:52:57.182Z,88.86
2023-01-18T19:58:00.969Z,89.54
2023-01-18T20:03:04.838Z,90.33
2023-01-18T20:08:09.164Z,90.25
2023-01-18T20:13:11.321Z,90.84
2023-01-18T20:18:13.569Z,91.02
2023-01-18T20:23:17.174Z,91.45
2023-01-18T20:28:19.245Z,91.80
2023-01-18T20:33:21.349Z,92.07
2023-01-18T20:38:26.181Z,92.94
2023-01-18T20:43:28.276Z,92.86
2023-01-18T20:48:30.118Z,92.94
2023-01-18T20:53:34.042Z,92.66
2023-01-18T20:58:36.651Z,93.93
2023-01-18T21:03:38.443Z,94.19
2023-01-18T21:08:41.957Z,94.16
2023-01-18T21:13:43.944Z,93.68
2023-01-18T21:18:45.797Z,94.57
2023-01-18T21:23:48.981Z,94.71
2023-01-18T21:28:51.127Z,94.26
2023-01-18T21:33:54.244Z,94.54
2023-01-18T21:38:57.387Z,94.91
2023-01-18T21:43:59.618Z,94.96
2023-01-18T21:49:02.512Z,95.95
2023-01-18T21:54:06.162Z,96.25
2023-01-18T21:59:08.464Z,95.41
2023-01-18T22:04:12.314Z,97.12
2023-01-18T22:09:15.864Z,96.81
2023-01-18T22:14:17.917Z,97.00
2023-01-18T22:19:20.063Z,96.65
2023-01-18T22:24:23.550Z,96.66
2023-01-18T22:29:25.284Z,96.82
2023-01-18T22:34:27.684Z,96.71
2023-01-18T22:39:31.027Z,96.88
2023-01-18T22:44:33.277Z,97.25
2023-01-18T22:49:35.739Z,98.02
2023-01-18T22:54:39.454Z,97.80
2023-01-18T22:59:41.216Z,97.80
2023-01-18T23:04:43.393Z,97.84
2023-01-18T23:09:46.822Z,97.60
2023-01-18T23:14:49.135Z,97.96
2023-01-18T23:19:51.155Z,97.77
2023-01-18T23:24:54.580Z,97.41
2023-01-18T23:29:57.093Z,97.45
2023-01-18T23:35:04.914Z,97.29
2023-01-18T23:40:12.552Z,97.31
2023-01-18T23:45:14.894Z,97.52
2023-01-18T23:50:29.168Z,97.32
2023-01-18T23:55:32.390Z,97.88
